< Typhoon 198114 1981 Season Typhoon 198116 >
Typhoon 198115 (THAD)
General InformationTrack Information on Google MapsDetailed Wind InformationList of All Images || NewsDisaster Info.ResourceGoogle EarthGE AnimationAtom FeedGeoJSON
Detalied Best Track (Time Zone = UTC)
Year Month Day Hour Lat. Long. Pressure (hPa) Wind (kt) Class Image Chart
1981 8 15 12 18.0 130.0 1000 0 2 Image Chart
1981 8 15 18 18.0 131.0 998 0 2 Image Chart
1981 8 16 00 18.5 132.0 996 0 2 Image Chart
1981 8 16 06 19.0 131.5 994 35 3 Image Chart
1981 8 16 12 18.6 131.5 992 40 3 Image Chart
1981 8 16 18 19.2 132.2 992 40 3 Image Chart
1981 8 17 00 19.8 132.6 985 45 3 Image Chart
1981 8 17 06 20.3 132.8 985 60 4 Image Chart
1981 8 17 12 20.5 132.9 985 60 4 Image Chart
1981 8 17 18 21.0 133.0 980 60 4 Image Chart
1981 8 18 00 21.6 133.2 975 60 4 Image Chart
1981 8 18 06 22.2 133.4 970 70 5 Image Chart
1981 8 18 12 22.8 133.6 965 70 5 Image Chart
1981 8 18 18 23.5 133.8 965 70 5 Image Chart
1981 8 19 00 24.0 134.0 960 70 5 Image Chart
1981 8 19 06 24.6 134.2 960 70 5 Image Chart
1981 8 19 12 25.2 134.5 960 70 5 Image Chart
1981 8 19 18 25.6 134.8 955 70 5 Image Chart
1981 8 20 00 25.9 135.3 960 70 5 Image Chart
1981 8 20 06 26.2 135.8 960 70 5 Image Chart
1981 8 20 12 26.6 136.0 960 70 5 Image Chart
1981 8 20 18 27.1 136.4 960 70 5 Image Chart
1981 8 21 00 27.6 136.7 965 70 5 Image Chart
1981 8 21 06 28.5 137.1 965 70 5 Image Chart
1981 8 21 12 29.2 137.2 965 70 5 Image Chart
1981 8 21 18 29.7 137.3 965 70 5 Image Chart
1981 8 22 00 30.2 137.4 965 65 5 Image Chart
1981 8 22 06 31.1 137.9 965 65 5 Image Chart
1981 8 22 12 32.4 138.6 965 65 5 Image Chart
1981 8 22 18 34.4 139.5 965 65 5 Image Chart
1981 8 23 00 38.1 140.8 964 65 5 Image Chart
1981 8 23 06 42.1 140.1 964 60 4 Image Chart
1981 8 23 12 46.1 140.9 970 0 6 Image Chart
1981 8 23 18 49.0 141.0 974 0 6 Image Chart
1981 8 24 00 51.0 141.0 984 0 6 Image Chart
1981 8 24 06 53.0 140.0 984 0 6 Image Chart
1981 8 24 12 55.0 140.0 984 0 6 Image Chart
1981 8 24 18 56.0 140.0 988 0 6 Image Chart
1981 8 25 00 56.0 138.0 990 0 6 Image Chart
Japan Meteorological Agency Best Track Data | Correction Date : 1992-10-21
< Typhoon 198114 1981 Season Typhoon 198116 >

Help